Latest Weather Observations for Gelantipy

IDV60801

Issued at 8:32 am EDT Wednesday 7 December 2016 (issued every 30 minutes, with the page automatically refreshed every 10 minutes)

About weather observations | Map of weather stations | Latest weather observations for VIC | Other Formats
Station Details ID: 084142 Name: GELANTIPY Lat: -37.22 Lon: 148.26 Height: 755.0 m
Data from the previous 72 hours. | See also: Recent months at Gelantipy
Date/Time
EDT
Temp
°C
App
Temp
°C
Dew
Point
°C
Rel
Hum
%
Delta-T
°C
Wind Press
QNH
hPa
Press
MSL
hPa
Rain since
9am
mm
Dir  Spd
km/h
Gust
km/h
Spd
kts
Gust
kts
07/08:30am 12.7 10.5 9.5 81 1.7 N 11 15 6 8 1016.0 1013.8 1.6
07/08:00am 12.2 10.1 9.6 84 1.4 NNE 11 15 6 8 1016.3 1014.1 1.6
07/07:30am 10.2 10.2 9.9 98 0.2 CALM 0 0 0 0 1016.1 1013.9 1.6
07/07:00am 9.3 7.9 9.0 98 0.2 ENE 6 9 3 5 1015.9 1013.7 1.6
07/06:30am 8.8 7.2 8.7 99 0.1 NNE 7 9 4 5 1015.7 1013.5 1.6
07/06:00am 8.5 6.8 8.4 99 0.1 N 7 9 4 5 1015.6 1013.4 1.6
07/05:30am 8.5 8.2 8.5 100 0.0 CALM 0 0 0 0 1015.2 1013.0 1.6
07/05:00am 8.4 8.0 8.4 100 0.0 CALM 0 0 0 0 1014.8 1012.6 1.6
07/04:30am 8.4 8.0 8.4 100 0.0 CALM 0 0 0 0 1014.5 1012.3 1.6
07/04:00am 8.5 8.2 8.5 100 0.0 CALM 0 0 0 0 1014.2 1012.0 1.6
07/03:30am 8.4 8.0 8.4 100 0.0 CALM 0 0 0 0 1014.0 1011.8 1.6
07/03:00am 8.4 8.0 8.4 100 0.0 CALM 0 0 0 0 1014.2 1012.0 1.6
07/02:30am 8.4 8.0 8.4 100 0.0 CALM 0 0 0 0 1014.5 1012.3 1.6
07/02:00am 8.4 6.9 8.4 100 0.0 SSW 6 9 3 5 1015.0 1012.8 1.6
07/01:30am 8.4 6.9 8.4 100 0.0 SSW 6 7 3 4 1015.0 1012.8 1.6
07/01:00am 8.4 6.3 8.4 100 0.0 SSW 9 13 5 7 1015.0 1012.8 1.6
07/12:30am 8.5 6.8 8.5 100 0.0 SSW 7 11 4 6 1015.2 1013.0 1.6
07/12:00am 8.8 7.2 8.8 100 0.0 SW 7 9 4 5 1015.3 1013.2 1.6
 
Date/Time
EDT
Temp
°C
App
Temp
°C
Dew
Point
°C
Rel
Hum
%
Delta-T
°C
Wind Press
QNH
hPa
Press
MSL
hPa
Rain since
9am
mm
Dir  Spd
km/h
Gust
km/h
Spd
kts
Gust
kts
06/11:30pm 9.0 7.5 9.0 100 0.0 SW 7 11 4 6 1015.4 1013.3 1.6
06/11:00pm 8.9 7.5 8.9 100 0.0 SW 6 9 3 5 1015.6 1013.4 1.6
06/10:30pm 8.9 7.0 8.9 100 0.0 SW 9 11 5 6 1015.8 1013.6 1.6
06/10:00pm 9.4 7.6 9.4 100 0.0 SW 9 13 5 7 1015.4 1013.3 1.6
06/09:30pm 9.8 8.1 9.8 100 0.0 SSW 9 13 5 7 1015.2 1013.0 1.4
06/09:00pm 10.2 8.6 10.2 100 0.0 S 9 17 5 9 1014.8 1012.6 1.2
06/08:30pm 10.5 9.0 10.5 100 0.0 SSW 9 17 5 9 1014.5 1012.3 1.2
06/08:00pm 10.8 9.4 10.8 100 0.0 S 9 15 5 8 1014.4 1012.2 1.0
06/07:30pm 11.1 9.8 11.1 100 0.0 SSW 9 13 5 7 1013.8 1011.6 0.8
06/07:00pm 11.4 9.8 11.4 100 0.0 S 11 15 6 8 1013.6 1011.4 0.6
06/06:30pm 11.5 10.6 11.5 100 0.0 S 7 11 4 6 1013.6 1011.4 0.6
06/06:00pm 11.6 10.4 11.6 100 0.0 S 9 15 5 8 1013.1 1010.9 0.4
06/05:30pm 11.9 10.8 11.9 100 0.0 S 9 13 5 7 1013.0 1010.8 0.2
06/05:00pm 11.9 10.4 11.9 100 0.0 S 11 17 6 9 1012.3 1010.1 0.0
06/04:30pm 12.0 10.9 12.0 100 0.0 S 9 13 5 7 1012.3 1010.1 0.0
06/04:00pm 11.9 10.3 11.6 98 0.2 SSE 11 17 6 9 1012.3 1010.1 0.0
06/03:30pm 12.2 11.0 11.7 97 0.3 SSW 9 11 5 6 1012.3 1010.1 0.0
06/03:00pm 12.1 11.0 11.8 98 0.2 S 9 15 5 8 1012.1 1009.9 0.0
06/02:30pm 11.9 10.7 11.6 98 0.2 SSE 9 15 5 8 1012.1 1009.9 0.0
06/02:00pm 12.0 10.8 11.7 98 0.2 S 9 11 5 6 1012.3 1010.1 0.0
06/01:30pm 12.1 10.9 11.6 97 0.3 SSW 9 11 5 6 1012.4 1010.2 0.0
06/01:00pm 12.0 10.8 11.7 98 0.2 SW 9 13 5 7 1012.3 1010.1 0.0
06/12:30pm 12.2 11.6 12.2 100 0.0 SSW 7 13 4 7 1012.8 1010.5 0.0
06/12:00pm 11.9 10.8 11.9 100 0.0 S 9 13 5 7 1012.9 1010.6 0.0
06/11:30am 11.7 10.9 11.7 100 0.0 S 7 13 4 7 1012.9 1010.6 0.0
06/11:00am 11.4 10.5 11.4 100 0.0 SSE 7 11 4 6 1012.9 1010.6 0.0
06/10:30am 11.2 9.9 11.2 100 0.0 S 9 15 5 8 1013.4 1011.2 0.0
06/10:00am 10.9 9.1 10.9 100 0.0 S 11 15 6 8 1013.7 1011.5 0.0
06/09:30am 10.5 8.2 10.5 100 0.0 SSW 13 20 7 11 1013.8 1011.6 0.0
06/09:00am 11.5 9.5 11.5 100 0.0 SSW 13 19 7 10 1013.5 1011.3 1.6
06/08:30am 11.9 10.8 11.9 100 0.0 S 9 11 5 6 1012.9 1010.6 1.6
06/08:00am 11.7 10.9 11.7 100 0.0 SSW 7 13 4 7 1012.5 1010.3 1.6
06/07:30am 11.6 10.8 11.6 100 0.0 SSW 7 9 4 5 1011.6 1009.3 1.6
06/07:00am 11.6 10.8 11.6 100 0.0 SSW 7 11 4 6 1011.6 1009.3 1.6
06/06:30am 12.0 11.5 12.0 100 0.0 SW 6 11 3 6 1011.1 1008.9 1.6
06/06:00am 12.4 12.4 12.4 100 0.0 WNW 4 9 2 5 1011.1 1008.9 1.6
06/05:30am 12.3 10.9 12.3 100 0.0 NNE 11 13 6 7 1011.0 1008.8 1.6
06/05:00am 11.9 10.0 11.9 100 0.0 NNE 13 17 7 9 1010.8 1008.6 1.6
06/04:30am 12.1 9.5 12.1 100 0.0 NE 17 26 9 14 1010.3 1008.0 1.6
06/04:00am 11.9 11.4 11.9 100 0.0 ENE 6 13 3 7 1010.5 1008.2 1.6
06/03:30am 11.8 9.9 11.8 100 0.0 NNW 13 20 7 11 1011.1 1008.9 1.6
06/03:00am 11.5 10.3 11.5 100 0.0 S 9 20 5 11 1012.1 1009.9 1.6
06/02:30am 11.8 12.4 11.8 100 0.0 CALM 0 0 0 0 1012.3 1010.1 1.6
06/02:00am 11.7 12.2 11.7 100 0.0 CALM 0 0 0 0 1012.9 1010.6 1.6
06/01:30am 11.6 10.8 11.6 100 0.0 NNE 7 11 4 6 1012.8 1010.5 1.6
06/01:00am 11.5 10.6 11.5 100 0.0 N 7 13 4 7 1013.1 1010.9 1.6
06/12:30am 11.3 9.2 11.3 100 0.0 NNE 13 19 7 10 1013.1 1010.9 1.6
06/12:00am 11.2 11.6 11.2 100 0.0 CALM 0 0 0 0 1014.2 1012.0 1.6
 
Date/Time
EDT
Temp
°C
App
Temp
°C
Dew
Point
°C
Rel
Hum
%
Delta-T
°C
Wind Press
QNH
hPa
Press
MSL
hPa
Rain since
9am
mm
Dir  Spd
km/h
Gust
km/h
Spd
kts
Gust
kts
05/11:30pm 11.2 10.8 11.2 100 0.0 SSW 4 6 2 3 1015.1 1012.9 1.6
05/11:00pm 11.1 11.5 11.1 100 0.0 CALM 0 0 0 0 1015.0 1012.8 1.4
05/10:30pm 11.1 10.3 11.1 100 0.0 ESE 6 7 3 4 1014.6 1012.4 1.4
05/10:00pm 11.1 10.3 11.1 100 0.0 SSE 6 9 3 5 1014.6 1012.4 1.4
05/09:30pm 11.2 10.4 11.2 100 0.0 ESE 6 9 3 5 1014.6 1012.4 1.4
05/09:00pm 11.4 10.7 11.4 100 0.0 S 6 9 3 5 1014.5 1012.3 1.4
05/08:30pm 11.4 10.7 11.4 100 0.0 S 6 7 3 4 1014.4 1012.2 1.4
05/08:00pm 11.4 10.5 11.4 100 0.0 S 7 9 4 5 1014.0 1011.8 1.4
05/07:30pm 11.5 10.3 11.5 100 0.0 SSE 9 13 5 7 1014.2 1012.0 1.4
05/07:00pm 11.7 10.5 11.7 100 0.0 S 9 17 5 9 1014.0 1011.8 1.2
05/06:30pm 12.4 11.4 12.4 100 0.0 S 9 17 5 9 1013.2 1011.0 1.2
05/06:00pm 12.7 11.8 12.7 100 0.0 SSW 9 13 5 7 1013.4 1011.2 1.2
05/05:30pm 12.9 13.4 12.9 100 0.0 SE 2 9 1 5 1013.3 1011.1 1.2
05/05:00pm 12.5 11.1 12.3 99 0.1 SSW 11 19 6 10 1013.0 1010.8 0.0
05/04:30pm 13.0 12.2 12.8 99 0.1 S 9 17 5 9 1012.5 1010.3 0.0
05/04:00pm 13.3 11.7 12.8 97 0.3 SSW 13 22 7 12 1011.9 1009.7 0.0
05/03:30pm 14.2 12.4 13.2 94 0.6 SSW 15 22 8 12 1011.8 1009.5 0.0
05/03:00pm 15.9 15.2 14.3 90 0.9 S 11 17 6 9 1011.7 1009.4 0.0
05/02:30pm 15.9 14.7 14.1 89 1.1 S 13 20 7 11 1011.7 1009.4 0.0
05/02:00pm 16.0 15.3 14.4 90 0.9 S 11 17 6 9 1011.7 1009.4 0.0
05/01:30pm 16.6 15.7 14.8 89 1.1 S 13 19 7 10 1011.6 1009.3 0.0
05/01:00pm 17.3 16.9 15.1 87 1.3 SSW 11 19 6 10 1011.7 1009.4 0.0
05/12:30pm 17.7 17.0 15.5 87 1.3 S 13 20 7 11 1011.6 1009.3 0.0
05/12:00pm 19.0 18.4 16.6 86 1.5 SW 15 24 8 13 1011.6 1009.3 0.0
05/11:30am 19.4 18.7 16.4 83 1.9 SW 15 24 8 13 1011.2 1009.0 0.0
05/11:00am 21.3 21.6 17.9 81 2.2 SSW 13 22 7 12 1011.1 1008.9 0.0
05/10:30am 22.4 21.8 16.7 70 3.6 SSW 15 24 8 13 1010.8 1008.6 0.0
05/10:00am 25.0 23.0 15.0 53 6.2 W 19 26 10 14 1010.6 1008.3 0.0
05/09:30am 24.8 23.9 14.9 54 6.1 WSW 13 24 7 13 1010.7 1008.5 0.0
05/09:00am 24.1 21.6 14.2 54 6.0 W 20 30 11 16 1010.5 1008.2 2.6
05/08:30am 22.9 20.3 13.7 56 5.5 WNW 20 30 11 16 1010.3 1008.0 2.6
05/08:00am 23.3 20.4 14.0 56 5.6 WNW 22 37 12 20 1009.7 1007.5 2.6
05/07:30am 22.0 19.0 12.5 54 5.6 NW 20 33 11 18 1009.3 1007.0 2.6
05/07:00am 21.4 18.6 12.5 57 5.2 NW 19 30 10 16 1009.2 1006.9 2.6
05/06:30am 20.5 18.5 12.7 61 4.6 NNW 15 28 8 15 1009.0 1006.7 2.6
05/06:00am 17.0 13.7 13.9 82 1.8 NNE 24 30 13 16 1008.7 1006.4 2.6
05/05:30am 17.1 13.8 14.0 82 1.8 N 24 30 13 16 1008.9 1006.6 2.6
05/05:00am 17.0 13.7 14.1 83 1.7 NNE 24 30 13 16 1008.7 1006.4 2.6
05/04:30am 16.5 14.1 14.5 88 1.2 NE 20 26 11 14 1008.9 1006.6 2.6
05/04:00am 16.8 14.4 14.3 85 1.5 NNE 20 28 11 15 1008.6 1006.3 2.4
05/03:30am 17.0 14.1 14.1 83 1.7 NNE 22 32 12 17 1008.7 1006.4 2.4
05/03:00am 18.2 13.6 13.5 74 2.8 NNE 30 41 16 22 1008.8 1006.5 2.4
05/02:30am 18.1 13.9 13.6 75 2.6 N 28 37 15 20 1009.4 1007.1 2.4
05/02:00am 18.7 12.6 13.1 70 3.3 N 37 50 20 27 1009.4 1007.1 2.4
05/01:30am 18.5 14.3 13.6 73 2.9 N 28 35 15 19 1010.5 1008.2 2.4
05/01:00am 18.5 14.3 13.4 72 3.0 N 28 41 15 22 1010.6 1008.3 2.4
05/12:58am 18.5 14.2 13.1 71 3.2 N 28 41 15 22 1010.5 1008.2 2.4
05/12:30am 17.1 16.0 14.2 83 1.7 NNE 13 19 7 10 1011.1 1008.9 2.4
05/12:00am 17.3 16.2 14.2 82 1.8 NE 13 19 7 10 1011.5 1009.2 2.4
 
Date/Time
EDT
Temp
°C
App
Temp
°C
Dew
Point
°C
Rel
Hum
%
Delta-T
°C
Wind Press
QNH
hPa
Press
MSL
hPa
Rain since
9am
mm
Dir  Spd
km/h
Gust
km/h
Spd
kts
Gust
kts
04/11:30pm 16.8 15.4 14.6 87 1.3 NNE 15 20 8 11 1011.6 1009.3 2.4
04/11:00pm 17.2 14.8 14.5 84 1.6 N 20 26 11 14 1011.7 1009.4 2.4
04/10:30pm 17.0 15.4 15.0 88 1.2 NNE 17 22 9 12 1012.0 1009.8 2.4
04/10:00pm 17.1 15.8 14.9 87 1.3 NNE 15 19 8 10 1012.4 1010.2 2.2
04/09:30pm 17.3 16.4 14.8 85 1.5 NNE 13 17 7 9 1012.8 1010.5 2.0
04/09:00pm 18.0 16.1 14.3 79 2.2 N 17 22 9 12 1013.4 1011.2 1.4
04/08:30pm 19.5 18.0 13.2 67 3.7 N 13 20 7 11 1012.4 1010.2 0.0
04/08:00pm 22.3 20.9 10.8 48 6.6 NNW 9 15 5 8 1012.1 1009.9 0.0
04/07:30pm 21.8 20.5 12.6 56 5.4 N 11 15 6 8 1011.2 1009.0 0.0
04/07:00pm 21.7 20.4 12.5 56 5.4 NNE 11 15 6 8 1010.9 1008.7 0.0
04/06:30pm 22.6 22.2 14.2 59 5.1 NE 9 13 5 7 1010.8 1008.6 0.0
04/06:00pm 22.7 21.4 13.7 56 5.4 NNE 13 17 7 9 1011.2 1009.0 0.0
04/05:30pm 24.3 23.4 12.6 48 7.0 NE 9 13 5 7 1011.5 1009.2 0.0
04/05:00pm 25.1 24.0 12.0 44 7.7 NNW 9 22 5 12 1011.8 1009.5 0.0
04/04:30pm 26.8 25.9 12.5 41 8.6 NNW 9 19 5 10 1012.2 1010.0 0.0
04/04:00pm 25.1 22.1 10.6 40 8.4 NW 17 24 9 13 1012.4 1010.2 0.0
04/03:30pm 25.7 23.0 12.9 45 7.7 WNW 19 24 10 13 1012.8 1010.5 0.0
04/03:00pm 26.2 23.8 12.6 43 8.2 WNW 17 24 9 13 1012.6 1010.4 0.0
04/02:30pm 26.8 26.4 14.2 46 7.8 NNW 9 15 5 8 1012.5 1010.3 0.0
04/02:00pm 26.3 26.5 15.7 52 6.7 NE 9 13 5 7 1012.6 1010.4 0.0
04/01:30pm 26.4 26.8 15.4 50 6.9 NE 7 11 4 6 1013.0 1010.8 0.0
04/01:00pm 25.3 25.3 15.3 54 6.2 NE 9 17 5 9 1013.2 1011.0 0.0
04/12:30pm 24.1 23.2 14.8 56 5.7 NE 13 17 7 9 1013.5 1011.3 0.0
04/12:00pm 23.1 21.1 13.8 55 5.6 NNE 17 20 9 11 1013.7 1011.5 0.0
04/11:30am 22.7 21.0 14.8 61 4.8 NNE 17 22 9 12 1014.2 1012.0 0.0
04/11:00am 21.3 19.3 14.9 67 3.9 NNE 19 24 10 13 1014.5 1012.3 0.0
04/10:30am 19.8 17.3 14.0 69 3.5 NNE 20 28 11 15 1014.6 1012.4 0.0
04/10:00am 19.0 16.5 14.1 73 2.9 NNE 20 28 11 15 1014.8 1012.6 0.0
04/09:30am 17.2 13.9 12.7 75 2.6 NNE 22 30 12 16 1015.1 1012.9 0.0
04/09:00am 15.7 12.4 12.8 83 1.7 NNE 22 28 12 15 1015.3 1013.2 0.2

Other Formats:

Comma delimited format used in spreadsheet applications
http://www.bom.gov.au/fwo/IDV60801/IDV60801.94913.axf

JavaScript Object Notation format (JSON) in row-major order
http://www.bom.gov.au/fwo/IDV60801/IDV60801.94913.json